Time;durP1;ratioP1;P1;durP2;ratioP2;P2;SDS_P1;SDS_P2;PMS_P1;PMS_P2;Temp;Humidity;BMP_temperature;BMP_pressure;BME280_temperature;BME280_humidity;BME280_pressure;Samples;Min_cycle;Max_cycle;Signal;HPM_P1;HPM_P2
2021/08/28 00:01:32;;;;;;;6.78;4.00;;;;;;;;;;5070700;28;20040;-68
2021/08/28 00:03:59;;;;;;;9.40;4.00;;;;;;;;;;5067524;28;20102;-68
2021/08/28 00:06:26;;;;;;;6.05;3.50;;;;;;;;;;5065388;28;20079;-68
2021/08/28 00:08:52;;;;;;;6.13;4.00;;;;;;;;;;5068372;28;20059;-68
2021/08/28 00:11:19;;;;;;;7.07;4.00;;;;;;;;;;5070654;28;20048;-68
2021/08/28 00:13:45;;;;;;;9.18;3.70;;;;;;;;;;5070919;28;20048;-67
2021/08/28 00:16:12;;;;;;;5.32;3.67;;;;;;;;;;5069359;28;20048;-68
2021/08/28 00:18:38;;;;;;;8.63;4.03;;;;;;;;;;5071444;28;20052;-68
2021/08/28 00:21:07;;;;;;;6.70;3.80;;;;;;;;;;5070965;28;20045;-68
2021/08/28 00:23:33;;;;;;;6.55;4.05;;;;;;;;;;5071090;28;20508;-68
2021/08/28 00:26:00;;;;;;;6.70;3.72;;;;;;;;;;5071177;28;20052;-68
2021/08/28 00:28:26;;;;;;;5.65;3.75;;;;;;;;;;5069274;28;20404;-68
2021/08/28 00:30:53;;;;;;;6.55;4.15;;;;;;;;;;5070659;28;20795;-68
2021/08/28 00:33:19;;;;;;;5.68;3.85;;;;;;;;;;5071343;28;20055;-68
2021/08/28 00:35:46;;;;;;;7.38;4.40;;;;;;;;;;5070435;28;20048;-68
2021/08/28 00:38:14;;;;;;;7.03;3.97;;;;;;;;;;5068655;28;20044;-68
2021/08/28 00:40:40;;;;;;;7.63;4.38;;;;;;;;;;5070922;28;20044;-68
2021/08/28 00:43:07;;;;;;;8.25;4.13;;;;;;;;;;5070809;28;20051;-68
2021/08/28 00:45:35;;;;;;;7.30;3.78;;;;;;;;;;5069209;28;20067;-68
2021/08/28 00:48:03;;;;;;;6.53;3.53;;;;;;;;;;5069968;28;20385;-68
2021/08/28 00:50:30;;;;;;;6.75;3.75;;;;;;;;;;5070162;28;20425;-68
2021/08/28 00:52:57;;;;;;;8.40;4.05;;;;;;;;;;5070155;28;20094;-68
2021/08/28 00:55:26;;;;;;;7.35;3.80;;;;;;;;;;5069537;28;20063;-68
2021/08/28 00:57:53;;;;;;;5.75;3.53;;;;;;;;;;5071075;28;20048;-68
2021/08/28 01:00:20;;;;;;;7.35;3.75;;;;;;;;;;5068643;28;20044;-67
2021/08/28 01:02:48;;;;;;;6.80;4.45;;;;;;;;;;5071836;28;20060;-68
2021/08/28 01:05:18;;;;;;;6.50;3.65;;;;;;;;;;5066046;28;20048;-68
2021/08/28 01:07:52;;;;;;;7.22;4.05;;;;;;;;;;5051997;28;20056;-68
2021/08/28 01:10:19;;;;;;;7.05;4.28;;;;;;;;;;5051005;28;20080;-68
2021/08/28 01:12:48;;;;;;;9.05;4.93;;;;;;;;;;5051551;28;20421;-68
2021/08/28 01:15:18;;;;;;;6.78;4.03;;;;;;;;;;5065283;28;20059;-69
2021/08/28 01:17:47;;;;;;;7.18;4.55;;;;;;;;;;5067913;28;20061;-68
2021/08/28 01:20:20;;;;;;;9.32;4.82;;;;;;;;;;5066347;28;20419;-68
2021/08/28 01:22:47;;;;;;;8.27;4.53;;;;;;;;;;5063054;28;20048;-68
2021/08/28 01:25:14;;;;;;;7.63;4.10;;;;;;;;;;5070943;28;20054;-68
2021/08/28 01:27:45;;;;;;;6.72;3.92;;;;;;;;;;5072077;28;20044;-68
2021/08/28 01:30:13;;;;;;;6.93;4.30;;;;;;;;;;5074428;28;20124;-68
2021/08/28 01:32:40;;;;;;;8.10;4.40;;;;;;;;;;5064422;28;20473;-68
2021/08/28 01:35:07;;;;;;;7.78;3.83;;;;;;;;;;5053974;28;20044;-68
2021/08/28 01:37:34;;;;;;;7.80;4.55;;;;;;;;;;5067651;28;20587;-68
2021/08/28 01:40:04;;;;;;;6.75;4.00;;;;;;;;;;5060779;28;20041;-68
2021/08/28 01:42:31;;;;;;;8.60;3.92;;;;;;;;;;5073378;28;20048;-68
2021/08/28 01:44:58;;;;;;;6.32;3.83;;;;;;;;;;5071625;28;20056;-68
2021/08/28 01:47:28;;;;;;;7.07;4.15;;;;;;;;;;5073068;28;20114;-68
2021/08/28 01:49:54;;;;;;;6.43;3.50;;;;;;;;;;5073618;28;20589;-68
2021/08/28 01:52:21;;;;;;;8.70;4.05;;;;;;;;;;5073408;28;20056;-68
2021/08/28 01:54:49;;;;;;;7.32;3.90;;;;;;;;;;5072443;28;20048;-68
2021/08/28 01:57:16;;;;;;;7.68;3.92;;;;;;;;;;5064495;28;20199;-68
2021/08/28 01:59:43;;;;;;;6.90;4.07;;;;;;;;;;5071905;28;20049;-68
2021/08/28 02:02:09;;;;;;;6.28;4.25;;;;;;;;;;5073409;28;20480;-68
2021/08/28 02:04:37;;;;;;;8.02;4.10;;;;;;;;;;5072540;28;20048;-68
2021/08/28 02:07:08;;;;;;;8.15;4.22;;;;;;;;;;5073405;28;20472;-68
2021/08/28 02:09:41;;;;;;;5.85;3.90;;;;;;;;;;5073426;28;20049;-68
2021/08/28 02:12:10;;;;;;;8.32;4.10;;;;;;;;;;5073521;28;20044;-68
2021/08/28 02:14:40;;;;;;;7.57;3.97;;;;;;;;;;5072704;28;20056;-68
2021/08/28 02:17:08;;;;;;;9.05;4.20;;;;;;;;;;5073127;28;20049;-68
2021/08/28 02:19:39;;;;;;;8.10;4.45;;;;;;;;;;5073247;28;20127;-69
2021/08/28 02:22:10;;;;;;;10.45;4.78;;;;;;;;;;5073012;28;20080;-68
2021/08/28 02:24:38;;;;;;;8.00;4.30;;;;;;;;;;5072967;28;20833;-68
2021/08/28 02:27:07;;;;;;;8.27;4.95;;;;;;;;;;5052871;28;20056;-68
2021/08/28 02:29:35;;;;;;;6.75;4.13;;;;;;;;;;5053048;28;20053;-68
2021/08/28 02:32:02;;;;;;;9.57;4.35;;;;;;;;;;5052722;28;20053;-68
2021/08/28 02:34:31;;;;;;;5.90;4.00;;;;;;;;;;5015183;28;1075086;-68
2021/08/28 02:36:59;;;;;;;6.90;4.47;;;;;;;;;;5053740;28;20294;-68
2021/08/28 02:39:26;;;;;;;7.60;4.22;;;;;;;;;;5053332;28;20052;-69
2021/08/28 02:41:53;;;;;;;5.50;3.58;;;;;;;;;;5053991;28;20048;-69
2021/08/28 02:44:20;;;;;;;8.90;4.28;;;;;;;;;;5053747;28;20049;-69
2021/08/28 02:46:47;;;;;;;6.75;3.90;;;;;;;;;;5068742;28;20131;-69
2021/08/28 02:49:14;;;;;;;6.35;3.90;;;;;;;;;;5063603;28;20079;-69
2021/08/28 02:51:42;;;;;;;7.43;3.92;;;;;;;;;;5072578;28;20049;-68
2021/08/28 02:54:11;;;;;;;9.20;5.25;;;;;;;;;;5073882;28;20059;-69
2021/08/28 02:56:39;;;;;;;8.38;4.22;;;;;;;;;;5073325;28;20064;-68
2021/08/28 02:59:06;;;;;;;7.47;3.78;;;;;;;;;;5073695;28;20095;-68
2021/08/28 03:01:33;;;;;;;8.27;4.57;;;;;;;;;;5073195;28;20049;-68
2021/08/28 03:04:00;;;;;;;8.52;4.10;;;;;;;;;;5073172;28;20694;-68
2021/08/28 03:06:27;;;;;;;7.43;4.15;;;;;;;;;;5072696;28;20045;-69
2021/08/28 03:08:55;;;;;;;9.93;4.35;;;;;;;;;;5073589;28;20053;-69
2021/08/28 03:11:23;;;;;;;7.90;4.53;;;;;;;;;;5072089;28;20055;-69
2021/08/28 03:13:49;;;;;;;6.57;4.30;;;;;;;;;;5073205;28;20052;-69
2021/08/28 03:16:19;;;;;;;7.80;4.03;;;;;;;;;;5073069;28;20047;-69
2021/08/28 03:18:47;;;;;;;7.80;4.47;;;;;;;;;;5072786;28;20048;-69
2021/08/28 03:21:15;;;;;;;10.32;5.43;;;;;;;;;;5073129;28;20056;-68
2021/08/28 03:23:43;;;;;;;6.85;4.10;;;;;;;;;;5073115;28;20052;-69
2021/08/28 03:26:10;;;;;;;8.88;4.82;;;;;;;;;;5072707;28;20052;-68
2021/08/28 03:28:39;;;;;;;8.73;4.97;;;;;;;;;;5073092;28;20064;-68
2021/08/28 03:31:06;;;;;;;7.65;4.32;;;;;;;;;;5072759;28;20053;-68
2021/08/28 03:33:32;;;;;;;8.82;4.32;;;;;;;;;;5072899;28;20045;-68
2021/08/28 03:35:59;;;;;;;5.95;3.70;;;;;;;;;;5071947;28;20052;-68
2021/08/28 03:38:27;;;;;;;7.07;4.53;;;;;;;;;;5073084;28;20052;-68
2021/08/28 03:40:54;;;;;;;6.63;4.22;;;;;;;;;;5072697;28;20460;-68
2021/08/28 03:43:20;;;;;;;8.23;4.20;;;;;;;;;;5072824;28;20397;-68
2021/08/28 03:45:50;;;;;;;6.88;3.60;;;;;;;;;;5072314;28;20056;-68
2021/08/28 03:48:17;;;;;;;8.10;4.10;;;;;;;;;;5071614;28;20048;-68
2021/08/28 03:50:44;;;;;;;10.98;4.18;;;;;;;;;;5063073;28;20084;-68
2021/08/28 03:53:10;;;;;;;5.70;3.30;;;;;;;;;;5072161;28;20056;-68
2021/08/28 03:55:36;;;;;;;6.85;3.97;;;;;;;;;;5071775;28;20058;-68
2021/08/28 03:58:03;;;;;;;6.30;4.05;;;;;;;;;;5072182;28;20053;-68
2021/08/28 04:00:29;;;;;;;6.68;3.83;;;;;;;;;;5072425;28;20055;-68
2021/08/28 04:02:57;;;;;;;9.10;4.97;;;;;;;;;;5072257;28;20496;-68
2021/08/28 04:05:24;;;;;;;7.68;4.32;;;;;;;;;;5072055;28;20511;-68
2021/08/28 04:07:50;;;;;;;9.93;5.07;;;;;;;;;;5072504;28;20056;-68
2021/08/28 04:10:16;;;;;;;6.85;3.85;;;;;;;;;;5072255;28;20044;-68
2021/08/28 04:12:43;;;;;;;6.15;3.75;;;;;;;;;;5072337;28;20492;-68
2021/08/28 04:15:10;;;;;;;8.13;3.95;;;;;;;;;;5071847;28;20049;-68
2021/08/28 04:17:37;;;;;;;7.10;4.20;;;;;;;;;;5071591;28;20555;-69
2021/08/28 04:20:06;;;;;;;6.30;3.60;;;;;;;;;;5072246;28;20111;-69
2021/08/28 04:22:32;;;;;;;7.30;3.75;;;;;;;;;;5071789;28;20055;-68
2021/08/28 04:24:59;;;;;;;6.72;3.50;;;;;;;;;;5071209;28;20057;-69
2021/08/28 04:27:25;;;;;;;7.38;4.20;;;;;;;;;;5071484;28;20064;-69
2021/08/28 04:29:51;;;;;;;7.07;4.20;;;;;;;;;;5072057;28;20457;-69
2021/08/28 04:32:18;;;;;;;8.85;4.28;;;;;;;;;;5072032;28;20094;-69
2021/08/28 04:34:44;;;;;;;8.10;4.47;;;;;;;;;;5071409;28;20731;-69
2021/08/28 04:37:12;;;;;;;9.88;4.28;;;;;;;;;;5072014;28;20052;-69
2021/08/28 04:39:39;;;;;;;10.10;4.30;;;;;;;;;;5071634;28;20462;-69
2021/08/28 04:42:05;;;;;;;8.38;4.13;;;;;;;;;;5071735;28;20044;-68
2021/08/28 04:44:32;;;;;;;12.43;5.82;;;;;;;;;;5071652;28;20052;-68
2021/08/28 04:46:58;;;;;;;6.45;4.13;;;;;;;;;;5071486;28;20056;-68
2021/08/28 04:49:25;;;;;;;5.60;3.42;;;;;;;;;;5070418;28;20497;-68
2021/08/28 04:51:51;;;;;;;6.20;3.83;;;;;;;;;;5063077;28;20036;-68
2021/08/28 04:54:19;;;;;;;8.90;4.47;;;;;;;;;;5071310;28;20063;-68
2021/08/28 04:56:45;;;;;;;7.80;5.28;;;;;;;;;;5071403;28;20049;-68
2021/08/28 04:59:12;;;;;;;8.27;5.10;;;;;;;;;;5071457;28;20388;-68
2021/08/28 05:01:41;;;;;;;13.20;5.38;;;;;;;;;;5071306;28;20056;-68
2021/08/28 05:04:07;;;;;;;8.38;4.97;;;;;;;;;;5071407;28;20133;-68
2021/08/28 05:06:34;;;;;;;9.75;5.05;;;;;;;;;;5071387;28;20052;-68
2021/08/28 05:09:00;;;;;;;8.27;5.65;;;;;;;;;;5070883;28;20698;-69
2021/08/28 05:11:28;;;;;;;12.80;5.50;;;;;;;;;;5071331;28;20052;-68
2021/08/28 05:13:54;;;;;;;9.13;4.82;;;;;;;;;;5071331;28;20055;-68
2021/08/28 05:16:21;;;;;;;8.07;3.83;;;;;;;;;;5071356;28;20500;-68
2021/08/28 05:18:47;;;;;;;6.25;3.08;;;;;;;;;;5071088;28;20416;-68
2021/08/28 05:21:14;;;;;;;7.53;3.03;;;;;;;;;;5070642;28;20378;-68
2021/08/28 05:23:40;;;;;;;5.63;3.00;;;;;;;;;;5066101;28;20066;-68
2021/08/28 05:26:07;;;;;;;4.82;2.50;;;;;;;;;;5068440;28;20048;-68
2021/08/28 05:28:35;;;;;;;8.68;3.65;;;;;;;;;;5071095;28;20063;-68
2021/08/28 05:31:01;;;;;;;4.82;2.97;;;;;;;;;;5071363;28;20055;-68
2021/08/28 05:33:28;;;;;;;6.25;2.78;;;;;;;;;;5070918;28;20052;-68
2021/08/28 05:35:54;;;;;;;7.18;3.65;;;;;;;;;;5069872;28;20048;-68
2021/08/28 05:38:21;;;;;;;7.57;3.28;;;;;;;;;;5056567;28;20457;-68
2021/08/28 05:40:47;;;;;;;4.63;3.10;;;;;;;;;;5050486;28;20049;-68
2021/08/28 05:43:13;;;;;;;5.53;3.00;;;;;;;;;;5050224;28;20053;-68
2021/08/28 05:45:41;;;;;;;6.32;2.90;;;;;;;;;;5050561;28;20052;-68
2021/08/28 05:48:07;;;;;;;4.60;2.83;;;;;;;;;;5053985;28;20044;-68
2021/08/28 05:50:34;;;;;;;6.03;3.30;;;;;;;;;;5069462;28;20060;-69
2021/08/28 05:53:00;;;;;;;5.32;2.70;;;;;;;;;;5061459;28;20401;-68
2021/08/28 05:55:27;;;;;;;4.30;2.17;;;;;;;;;;5070354;28;20120;-68
2021/08/28 05:57:53;;;;;;;5.68;3.25;;;;;;;;;;5070073;28;20052;-68
2021/08/28 06:00:20;;;;;;;4.30;2.72;;;;;;;;;;5063335;28;20056;-68
2021/08/28 06:02:47;;;;;;;5.50;2.97;;;;;;;;;;5068761;28;20369;-68
2021/08/28 06:05:15;;;;;;;4.45;3.00;;;;;;;;;;5069940;28;20060;-68
2021/08/28 06:07:42;;;;;;;5.00;2.50;;;;;;;;;;5061234;28;20044;-68
2021/08/28 06:10:08;;;;;;;5.22;2.72;;;;;;;;;;5063053;28;20048;-68
2021/08/28 06:12:36;;;;;;;3.88;2.28;;;;;;;;;;5058688;28;20401;-69
2021/08/28 06:15:05;;;;;;;6.45;3.17;;;;;;;;;;5067543;28;20045;-68
2021/08/28 06:17:31;;;;;;;6.82;2.60;;;;;;;;;;5071248;28;20076;-68
2021/08/28 06:19:59;;;;;;;5.70;3.40;;;;;;;;;;5069712;28;20465;-68
2021/08/28 06:22:25;;;;;;;4.38;2.78;;;;;;;;;;5070415;28;20044;-68
2021/08/28 06:24:52;;;;;;;4.72;2.88;;;;;;;;;;5073477;28;20052;-68
2021/08/28 06:27:18;;;;;;;4.80;2.85;;;;;;;;;;5074211;28;20053;-68
2021/08/28 06:29:45;;;;;;;4.70;2.85;;;;;;;;;;5074126;28;20067;-68
2021/08/28 06:32:11;;;;;;;6.68;2.38;;;;;;;;;;5073955;28;20044;-68
2021/08/28 06:34:37;;;;;;;4.78;2.70;;;;;;;;;;5073044;28;20398;-68
2021/08/28 06:37:05;;;;;;;3.85;2.45;;;;;;;;;;5073931;28;20480;-69
2021/08/28 06:39:32;;;;;;;5.50;2.95;;;;;;;;;;5074063;28;20485;-68
2021/08/28 06:41:59;;;;;;;5.50;3.20;;;;;;;;;;5073625;28;20136;-68
2021/08/28 06:44:25;;;;;;;5.63;2.67;;;;;;;;;;5073351;28;20119;-68
2021/08/28 06:46:52;;;;;;;5.30;2.83;;;;;;;;;;5073682;28;20091;-68
2021/08/28 06:49:18;;;;;;;4.35;2.88;;;;;;;;;;5073298;28;20064;-68
2021/08/28 06:51:44;;;;;;;5.40;3.28;;;;;;;;;;5072610;28;20052;-68
2021/08/28 06:54:12;;;;;;;7.55;3.38;;;;;;;;;;5064535;28;20440;-69
2021/08/28 06:56:39;;;;;;;4.72;3.40;;;;;;;;;;5073648;28;20056;-68
2021/08/28 06:59:05;;;;;;;14.40;4.05;;;;;;;;;;5073890;28;20053;-69
2021/08/28 07:01:32;;;;;;;6.53;3.45;;;;;;;;;;5073285;28;20045;-69
2021/08/28 07:03:58;;;;;;;4.75;3.05;;;;;;;;;;5072906;28;20510;-69
2021/08/28 07:06:25;;;;;;;5.10;2.80;;;;;;;;;;5073406;28;20524;-69
2021/08/28 07:08:51;;;;;;;4.93;3.08;;;;;;;;;;5073171;28;20055;-69
2021/08/28 07:11:19;;;;;;;5.03;3.70;;;;;;;;;;5073524;28;20060;-69
2021/08/28 07:13:45;;;;;;;4.90;3.08;;;;;;;;;;5072627;28;20436;-69
2021/08/28 07:16:12;;;;;;;4.47;3.15;;;;;;;;;;5073061;28;20044;-69
2021/08/28 07:18:38;;;;;;;5.20;3.63;;;;;;;;;;5073200;28;20064;-69
2021/08/28 07:21:05;;;;;;;6.32;3.72;;;;;;;;;;5072984;28;20060;-69
2021/08/28 07:23:31;;;;;;;6.60;3.58;;;;;;;;;;5072343;28;20055;-69
2021/08/28 07:25:58;;;;;;;6.38;3.78;;;;;;;;;;5068932;28;20040;-69
2021/08/28 07:28:25;;;;;;;5.30;3.30;;;;;;;;;;5073095;28;20044;-70
2021/08/28 07:30:52;;;;;;;6.35;3.13;;;;;;;;;;5073065;28;20048;-69
2021/08/28 07:33:18;;;;;;;7.40;3.75;;;;;;;;;;5072659;28;20060;-69
2021/08/28 07:35:46;;;;;;;5.95;3.78;;;;;;;;;;5071633;28;20131;-69
2021/08/28 07:38:12;;;;;;;5.40;3.03;;;;;;;;;;5072793;28;20138;-69
2021/08/28 07:40:38;;;;;;;7.13;3.17;;;;;;;;;;5073037;28;20052;-69
2021/08/28 07:43:05;;;;;;;5.80;2.70;;;;;;;;;;5072392;28;20377;-69
2021/08/28 07:45:33;;;;;;;5.85;3.33;;;;;;;;;;5072315;28;20062;-69
2021/08/28 07:47:59;;;;;;;4.88;2.92;;;;;;;;;;5072616;28;20484;-69
2021/08/28 07:50:26;;;;;;;4.65;2.70;;;;;;;;;;5072073;28;20119;-69
2021/08/28 07:52:52;;;;;;;5.93;3.30;;;;;;;;;;5071037;28;20052;-69
2021/08/28 07:55:19;;;;;;;5.35;3.47;;;;;;;;;;5063827;28;20060;-69
2021/08/28 07:57:45;;;;;;;4.32;3.33;;;;;;;;;;5062449;28;20055;-69
2021/08/28 08:00:13;;;;;;;6.28;3.67;;;;;;;;;;5072419;28;20048;-69
2021/08/28 08:02:41;;;;;;;4.57;2.92;;;;;;;;;;5071422;28;20068;-69
2021/08/28 08:05:08;;;;;;;4.72;3.17;;;;;;;;;;5071804;28;20404;-69
2021/08/28 08:07:34;;;;;;;5.15;2.78;;;;;;;;;;5071974;28;20408;-69
2021/08/28 08:10:01;;;;;;;5.30;2.70;;;;;;;;;;5072358;28;20439;-69
2021/08/28 08:12:28;;;;;;;4.28;2.70;;;;;;;;;;5067083;28;20048;-69
2021/08/28 08:14:54;;;;;;;4.13;2.83;;;;;;;;;;5051436;28;20056;-69
2021/08/28 08:17:20;;;;;;;4.15;2.85;;;;;;;;;;5052111;28;20052;-69
2021/08/28 08:19:48;;;;;;;4.30;2.65;;;;;;;;;;5052052;28;20045;-69
2021/08/28 08:22:16;;;;;;;4.75;2.67;;;;;;;;;;5051889;28;20071;-69
2021/08/28 08:24:42;;;;;;;3.97;2.50;;;;;;;;;;5051363;28;20481;-69
2021/08/28 08:27:09;;;;;;;3.40;2.10;;;;;;;;;;5067044;28;20060;-67
2021/08/28 08:29:35;;;;;;;3.92;2.38;;;;;;;;;;5071990;28;20052;-69
2021/08/28 08:32:02;;;;;;;3.83;2.22;;;;;;;;;;5072046;28;20048;-69
2021/08/28 08:34:28;;;;;;;4.18;1.92;;;;;;;;;;5071568;28;20063;-69
2021/08/28 08:36:56;;;;;;;5.72;2.30;;;;;;;;;;5071666;28;20056;-69
2021/08/28 08:39:22;;;;;;;3.83;2.63;;;;;;;;;;5071855;28;20060;-69
2021/08/28 08:41:50;;;;;;;3.67;2.63;;;;;;;;;;5071897;28;20382;-69
2021/08/28 08:44:17;;;;;;;4.35;2.15;;;;;;;;;;5070926;28;20041;-69
2021/08/28 08:46:44;;;;;;;3.67;2.13;;;;;;;;;;5071596;28;20067;-69
2021/08/28 08:49:13;;;;;;;3.83;2.28;;;;;;;;;;5071841;28;20080;-69
2021/08/28 08:51:39;;;;;;;3.88;2.40;;;;;;;;;;5070896;28;20469;-69
2021/08/28 08:54:07;;;;;;;4.90;2.38;;;;;;;;;;5069712;28;20036;-69
2021/08/28 08:56:35;;;;;;;3.30;2.20;;;;;;;;;;5062356;28;20060;-69
2021/08/28 08:59:02;;;;;;;3.80;2.47;;;;;;;;;;5051306;28;20068;-69
2021/08/28 09:01:28;;;;;;;10.30;3.28;;;;;;;;;;5068437;28;20424;-69
2021/08/28 09:03:55;;;;;;;3.38;2.15;;;;;;;;;;5071100;28;20480;-67
2021/08/28 09:06:21;;;;;;;4.68;2.40;;;;;;;;;;5070921;28;20060;-68
2021/08/28 09:08:48;;;;;;;6.43;2.30;;;;;;;;;;5070440;28;20064;-69
2021/08/28 09:11:24;;;;;;;3.80;2.35;;;;;;;;;;5070334;28;20048;-69
2021/08/28 09:13:51;;;;;;;4.72;2.83;;;;;;;;;;5064306;28;20052;-69
2021/08/28 09:16:31;;;;;;;3.80;2.20;;;;;;;;;;5068829;28;20063;-69
2021/08/28 09:18:58;;;;;;;4.20;2.00;;;;;;;;;;5069681;28;20164;-69
2021/08/28 09:21:31;;;;;;;7.20;2.65;;;;;;;;;;5062759;28;20049;-69
2021/08/28 09:23:59;;;;;;;2.83;2.08;;;;;;;;;;5070583;28;20393;-67
2021/08/28 09:26:28;;;;;;;5.47;2.10;;;;;;;;;;5066130;28;20083;-67
2021/08/28 09:28:55;;;;;;;3.75;2.30;;;;;;;;;;5070547;28;20051;-67
2021/08/28 09:31:36;;;;;;;3.05;2.22;;;;;;;;;;5070716;28;20080;-67
2021/08/28 09:34:21;;;;;;;3.33;2.08;;;;;;;;;;5068165;28;20453;-67
2021/08/28 09:36:53;;;;;;;6.00;2.42;;;;;;;;;;5068168;28;20748;-69
2021/08/28 09:39:19;;;;;;;3.78;2.25;;;;;;;;;;5068690;28;20044;-67
2021/08/28 09:41:54;;;;;;;3.50;2.15;;;;;;;;;;5064069;28;20049;-67
2021/08/28 09:44:21;;;;;;;3.42;2.22;;;;;;;;;;5067683;28;20051;-67
2021/08/28 09:46:48;;;;;;;4.47;1.88;;;;;;;;;;5067826;28;20048;-67
2021/08/28 09:49:14;;;;;;;2.40;1.75;;;;;;;;;;5065705;28;20063;-67
2021/08/28 09:51:40;;;;;;;3.25;1.75;;;;;;;;;;5066040;28;20048;-67
2021/08/28 09:54:10;;;;;;;4.22;1.92;;;;;;;;;;5070710;28;20044;-68
2021/08/28 09:56:41;;;;;;;3.40;2.15;;;;;;;;;;5073199;28;20059;-68
2021/08/28 09:59:21;;;;;;;3.15;1.77;;;;;;;;;;5066370;28;20152;-69
2021/08/28 10:01:48;;;;;;;5.68;2.38;;;;;;;;;;5069698;28;20394;-69
2021/08/28 10:04:15;;;;;;;5.13;2.92;;;;;;;;;;5068251;28;20052;-69
2021/08/28 10:06:45;;;;;;;4.28;2.60;;;;;;;;;;5069208;28;20053;-69
2021/08/28 10:09:13;;;;;;;3.85;1.80;;;;;;;;;;5072778;28;20524;-68
2021/08/28 10:11:39;;;;;;;4.50;1.40;;;;;;;;;;5070223;28;20051;-69
2021/08/28 10:14:06;;;;;;;5.03;2.00;;;;;;;;;;5068144;28;20068;-69
2021/08/28 10:16:35;;;;;;;7.57;2.75;;;;;;;;;;5072881;28;20500;-69
2021/08/28 10:19:01;;;;;;;6.15;2.42;;;;;;;;;;5067988;28;20044;-67
2021/08/28 10:21:28;;;;;;;3.33;2.10;;;;;;;;;;5073891;28;20685;-67
2021/08/28 10:23:55;;;;;;;5.00;1.88;;;;;;;;;;5065318;28;20044;-67
2021/08/28 10:26:21;;;;;;;4.88;2.22;;;;;;;;;;5073128;28;20443;-69
2021/08/28 10:28:48;;;;;;;2.17;1.60;;;;;;;;;;5070524;28;20048;-67
2021/08/28 10:31:16;;;;;;;2.30;1.52;;;;;;;;;;5072485;28;20048;-68
2021/08/28 10:33:44;;;;;;;3.70;1.73;;;;;;;;;;5073004;28;20049;-68
2021/08/28 10:36:10;;;;;;;2.42;1.60;;;;;;;;;;5072330;28;20055;-68
2021/08/28 10:38:38;;;;;;;3.35;1.60;;;;;;;;;;5073059;28;20044;-68
2021/08/28 10:41:05;;;;;;;1.90;1.38;;;;;;;;;;5080103;28;20055;-69
2021/08/28 10:43:31;;;;;;;3.80;1.20;;;;;;;;;;5066454;28;20047;-71
2021/08/28 10:45:58;;;;;;;2.22;1.40;;;;;;;;;;5055566;28;20068;-69
2021/08/28 10:48:24;;;;;;;1.92;1.27;;;;;;;;;;5055156;28;20417;-69
2021/08/28 10:50:53;;;;;;;1.90;1.27;;;;;;;;;;5054883;28;20409;-68
2021/08/28 10:53:20;;;;;;;1.17;0.93;;;;;;;;;;5058953;28;20052;-69
2021/08/28 10:55:47;;;;;;;2.88;1.17;;;;;;;;;;5072752;28;20378;-68
2021/08/28 10:58:16;;;;;;;1.95;1.00;;;;;;;;;;5072820;28;20059;-69
2021/08/28 11:00:45;;;;;;;2.67;1.13;;;;;;;;;;5073661;28;20094;-69
2021/08/28 11:03:34;;;;;;;2.35;1.00;;;;;;;;;;5074291;28;20040;-69
2021/08/28 11:06:22;;;;;;;1.92;1.10;;;;;;;;;;5068238;28;20393;-69
2021/08/28 11:08:49;;;;;;;3.05;1.50;;;;;;;;;;5073347;28;20087;-68
2021/08/28 11:11:26;;;;;;;2.20;1.25;;;;;;;;;;5074252;28;20485;-68
2021/08/28 11:14:03;;;;;;;5.63;1.63;;;;;;;;;;5070240;28;20102;-68
2021/08/28 11:16:52;;;;;;;4.13;1.40;;;;;;;;;;5071784;28;20371;-68
2021/08/28 11:19:48;;;;;;;3.13;1.95;;;;;;;;;;5074626;28;20049;-68
2021/08/28 11:22:24;;;;;;;2.08;1.75;;;;;;;;;;5057111;28;20049;-68
2021/08/28 11:24:58;;;;;;;2.85;2.03;;;;;;;;;;5068425;28;20068;-68
2021/08/28 11:27:39;;;;;;;2.65;1.98;;;;;;;;;;5072671;28;20830;-68
2021/08/28 11:30:07;;;;;;;4.30;1.92;;;;;;;;;;5072938;28;20055;-68
2021/08/28 11:32:34;;;;;;;3.40;2.20;;;;;;;;;;5071995;28;20048;-68
2021/08/28 11:35:01;;;;;;;4.38;2.17;;;;;;;;;;5071122;28;20040;-69
2021/08/28 11:37:42;;;;;;;3.45;1.90;;;;;;;;;;5072055;28;20071;-68
2021/08/28 11:40:28;;;;;;;3.67;1.70;;;;;;;;;;5068162;28;20054;-68
2021/08/28 11:42:55;;;;;;;2.90;1.70;;;;;;;;;;5064921;28;20543;-68
2021/08/28 11:45:30;;;;;;;3.45;2.03;;;;;;;;;;5076006;28;20048;-68
2021/08/28 11:47:57;;;;;;;4.25;2.03;;;;;;;;;;5067396;28;20044;-69
2021/08/28 11:50:29;;;;;;;3.95;1.98;;;;;;;;;;5073594;28;20489;-68
2021/08/28 11:52:57;;;;;;;4.88;1.75;;;;;;;;;;5072705;28;20052;-68
2021/08/28 11:55:25;;;;;;;2.25;1.63;;;;;;;;;;5070077;28;20075;-68
2021/08/28 11:58:06;;;;;;;3.58;1.83;;;;;;;;;;5068357;28;20045;-69
2021/08/28 12:00:33;;;;;;;3.05;1.85;;;;;;;;;;5061004;28;20051;-69
2021/08/28 12:03:00;;;;;;;2.22;1.65;;;;;;;;;;5065731;28;20076;-68
2021/08/28 12:05:28;;;;;;;2.33;1.70;;;;;;;;;;5070987;28;20080;-68
2021/08/28 12:07:56;;;;;;;2.50;1.30;;;;;;;;;;5072359;28;20044;-68
2021/08/28 12:10:23;;;;;;;3.10;1.95;;;;;;;;;;5072678;28;20052;-68
2021/08/28 12:12:57;;;;;;;2.83;1.60;;;;;;;;;;5071775;28;20078;-68
2021/08/28 12:15:25;;;;;;;4.53;1.50;;;;;;;;;;5072028;28;20133;-69
2021/08/28 12:17:51;;;;;;;2.70;1.60;;;;;;;;;;5072713;28;20072;-68
2021/08/28 12:20:24;;;;;;;3.58;1.83;;;;;;;;;;5072217;28;20481;-68
2021/08/28 12:22:52;;;;;;;4.15;1.65;;;;;;;;;;5072348;28;20048;-68
2021/08/28 12:25:20;;;;;;;4.85;1.55;;;;;;;;;;5071976;28;20412;-68
2021/08/28 12:27:47;;;;;;;5.10;1.90;;;;;;;;;;5072647;28;20473;-68
2021/08/28 12:30:14;;;;;;;2.15;1.40;;;;;;;;;;5072051;28;20143;-68
2021/08/28 12:32:40;;;;;;;2.60;1.58;;;;;;;;;;5071866;28;20402;-68
2021/08/28 12:35:08;;;;;;;3.80;1.27;;;;;;;;;;5071377;28;20048;-68
2021/08/28 12:37:37;;;;;;;6.95;1.70;;;;;;;;;;5070491;28;20052;-69
2021/08/28 12:40:09;;;;;;;2.67;1.30;;;;;;;;;;5066555;28;20080;-68
2021/08/28 12:42:37;;;;;;;5.70;1.45;;;;;;;;;;5069668;28;20083;-68
2021/08/28 12:45:05;;;;;;;2.05;1.45;;;;;;;;;;5071829;28;20151;-68
2021/08/28 12:47:33;;;;;;;5.90;1.63;;;;;;;;;;5071981;28;20052;-68
2021/08/28 12:50:00;;;;;;;2.42;1.63;;;;;;;;;;5071900;28;20428;-68
2021/08/28 12:52:35;;;;;;;8.85;1.73;;;;;;;;;;5071329;28;20052;-68
2021/08/28 12:55:01;;;;;;;4.17;1.30;;;;;;;;;;5071736;28;20072;-68
2021/08/28 12:57:29;;;;;;;1.80;1.23;;;;;;;;;;5069756;28;20056;-68
2021/08/28 12:59:59;;;;;;;2.05;1.20;;;;;;;;;;5063463;28;20094;-68
2021/08/28 13:02:28;;;;;;;3.72;1.10;;;;;;;;;;5071326;28;20057;-68
2021/08/28 13:04:56;;;;;;;6.20;1.85;;;;;;;;;;5071366;28;20052;-68
2021/08/28 13:07:23;;;;;;;3.28;1.20;;;;;;;;;;5071028;28;20052;-68
2021/08/28 13:09:59;;;;;;;2.00;1.35;;;;;;;;;;5070686;28;20048;-68
2021/08/28 13:12:45;;;;;;;2.22;1.27;;;;;;;;;;5063022;28;20055;-68
2021/08/28 13:15:13;;;;;;;;;;;;;;;;;;5072039;28;20056;-68
2021/08/28 13:17:41;;;;;;;2.33;1.30;;;;;;;;;;5071845;28;19928;-68
2021/08/28 13:20:09;;;;;;;2.15;1.20;;;;;;;;;;5065659;28;20085;-68
2021/08/28 13:22:39;;;;;;;2.17;1.15;;;;;;;;;;5070786;28;20049;-68
2021/08/28 13:25:08;;;;;;;1.83;1.08;;;;;;;;;;5075367;28;20048;-68
2021/08/28 13:27:41;;;;;;;4.07;1.77;;;;;;;;;;5075752;28;20091;-68
2021/08/28 13:30:19;;;;;;;3.17;1.40;;;;;;;;;;5075583;28;20056;-68
2021/08/28 13:32:53;;;;;;;5.63;1.40;;;;;;;;;;5075259;28;20105;-68
2021/08/28 13:35:20;;;;;;;2.70;1.90;;;;;;;;;;5075274;28;20051;-68
2021/08/28 13:37:46;;;;;;;4.03;2.08;;;;;;;;;;5075462;28;20052;-68
2021/08/28 13:40:13;;;;;;;2.15;1.35;;;;;;;;;;5075494;28;20056;-68
2021/08/28 13:42:40;;;;;;;2.70;1.55;;;;;;;;;;5075541;28;20481;-68
2021/08/28 13:45:07;;;;;;;4.32;1.98;;;;;;;;;;5075106;28;20473;-68
2021/08/28 13:47:34;;;;;;;3.92;1.42;;;;;;;;;;5066860;28;20053;-68
2021/08/28 13:50:02;;;;;;;5.30;1.55;;;;;;;;;;5075124;28;20056;-68
2021/08/28 13:52:28;;;;;;;1.58;1.13;;;;;;;;;;5075151;28;20658;-68
2021/08/28 13:54:55;;;;;;;3.95;1.42;;;;;;;;;;5074795;28;20045;-68
2021/08/28 13:57:21;;;;;;;4.45;2.53;;;;;;;;;;5073980;28;20059;-68
2021/08/28 13:59:47;;;;;;;1.92;1.38;;;;;;;;;;5071409;28;20052;-68
2021/08/28 14:02:14;;;;;;;2.40;1.35;;;;;;;;;;5063285;28;20066;-68
2021/08/28 14:04:42;;;;;;;3.90;1.70;;;;;;;;;;5074104;28;20060;-69
2021/08/28 14:07:08;;;;;;;2.20;1.75;;;;;;;;;;5074860;28;20083;-68
2021/08/28 14:09:34;;;;;;;4.47;1.70;;;;;;;;;;5074999;28;20049;-68
2021/08/28 14:12:01;;;;;;;1.90;1.35;;;;;;;;;;5074663;28;20057;-68
2021/08/28 14:14:28;;;;;;;3.15;1.65;;;;;;;;;;5074622;28;20048;-68
2021/08/28 14:16:54;;;;;;;4.13;1.85;;;;;;;;;;5074639;28;20622;-68
2021/08/28 14:19:21;;;;;;;2.72;1.77;;;;;;;;;;5074699;28;20055;-68
2021/08/28 14:21:48;;;;;;;3.03;1.60;;;;;;;;;;5074347;28;20059;-67
2021/08/28 14:24:15;;;;;;;3.72;2.10;;;;;;;;;;5074381;28;20049;-67
2021/08/28 14:26:41;;;;;;;3.13;2.05;;;;;;;;;;5074193;28;21025;-68
2021/08/28 14:29:09;;;;;;;3.35;1.75;;;;;;;;;;5073717;28;20049;-68
2021/08/28 14:31:35;;;;;;;2.92;1.98;;;;;;;;;;5073368;28;20556;-68
2021/08/28 14:34:02;;;;;;;6.22;1.85;;;;;;;;;;5072161;28;20051;-68
2021/08/28 14:36:28;;;;;;;2.88;1.88;;;;;;;;;;5073130;28;20064;-69
2021/08/28 14:38:56;;;;;;;4.88;2.05;;;;;;;;;;5072396;28;20044;-68
2021/08/28 14:41:23;;;;;;;2.85;2.03;;;;;;;;;;5073609;28;20055;-67
2021/08/28 14:43:49;;;;;;;4.25;1.85;;;;;;;;;;5070226;28;20044;-68
2021/08/28 14:46:16;;;;;;;2.25;1.80;;;;;;;;;;5073172;28;20048;-69
2021/08/28 14:48:42;;;;;;;2.92;1.92;;;;;;;;;;5072742;28;20060;-68